Houston's Hourly Summary for Tuesday, March 14, 2017
Hour Temp
(f)
RH
(%)
Solar Rad.
(MJ/m2)
Rainfall
(in)
Wind
(mph)
3/14/2017 12:00 AM 51 84 0 0 0
3/14/2017 1:00 AM 50 94 0 0 0.01
3/14/2017 2:00 AM 48 99 0 0 0.22
3/14/2017 3:00 AM 51 55 0 0 1.9
3/14/2017 4:00 AM 51 56 0 0 3.44
3/14/2017 5:00 AM 49 57 0 0 3.84
3/14/2017 6:00 AM 48 62 0 0 3.98
3/14/2017 7:00 AM 46 59 0 0 3.75
3/14/2017 8:00 AM 45 54 0.05 0 2.02
3/14/2017 9:00 AM 47 50 0.2 0 4.66
3/14/2017 10:00 AM 49 50 1.2 0 4.86
3/14/2017 11:00 AM 51 44 1.99 0 3.93
3/14/2017 12:00 PM 55 40 2.54 0 3.76
3/14/2017 1:00 PM 58 35 2.89 0 2.62
3/14/2017 2:00 PM 61 31 3.02 0 2.49
3/14/2017 3:00 PM 63 27 2.9 0 2.44
3/14/2017 4:00 PM 66 25 2.56 0 1.97
3/14/2017 5:00 PM 67 25 2.02 0 2.01
3/14/2017 6:00 PM 68 25 1.35 0 2.2
3/14/2017 7:00 PM 67 26 0.61 0 1.79
3/14/2017 8:00 PM 64 33 0.06 0 2.45
3/14/2017 9:00 PM 59 53 0 0 3.67
3/14/2017 10:00 PM 56 67 0 0 0.24
3/14/2017 11:00 PM 54 73 0 0 0.34
Data Summary 55 51 21.39 0.00 2.44